Time;durP1;ratioP1;P1;durP2;ratioP2;P2;SDS_P1;SDS_P2;PMS_P1;PMS_P2;Temp;Humidity;BMP_temperature;BMP_pressure;BME280_temperature;BME280_humidity;BME280_pressure;Samples;Min_cycle;Max_cycle;Signal;HPM_P1;HPM_P2
2021/04/13 00:02:24;;;;;;;11.82;3.83;;;436.10;1356.80;;;;;;4993455;28;20029;-79
2021/04/13 00:04:55;;;;;;;7.07;3.78;;;435.40;1356.80;;;;;;5009977;28;20052;-79
2021/04/13 00:07:23;;;;;;;13.95;3.92;;;435.40;1382.40;;;;;;4993288;28;20512;-76
2021/04/13 00:09:49;;;;;;;8.30;3.65;;;435.30;1382.40;;;;;;4993356;28;20026;-83
2021/04/13 00:12:24;;;;;;;8.35;3.47;;;435.30;1382.40;;;;;;5009952;28;20124;-78
2021/04/13 00:14:56;;;;;;;11.27;4.00;;;435.40;1382.40;;;;;;5009601;28;20499;-81
2021/04/13 00:17:24;;;;;;;7.30;3.80;;;435.20;1408.00;;;;;;4993101;28;20030;-81
2021/04/13 00:19:56;;;;;;;10.65;3.42;;;435.30;1408.00;;;;;;5009380;28;20068;-78
2021/04/13 00:22:22;;;;;;;10.88;3.58;;;410.50;1433.60;;;;;;4992990;28;20022;-82
2021/04/13 00:24:50;;;;;;;11.57;3.35;;;410.40;1459.20;;;;;;5009714;28;20038;-79
2021/04/13 00:27:16;;;;;;;10.15;3.60;;;410.50;1459.20;;;;;;4993304;28;20064;-81
2021/04/13 00:29:43;;;;;;;10.00;3.45;;;410.30;1484.80;;;;;;4992702;28;20037;-78
2021/04/13 00:32:10;;;;;;;9.50;3.60;;;410.40;1459.20;;;;;;5009443;28;20029;-80
2021/04/13 00:34:52;;;;;;;8.93;3.95;;;410.30;1484.80;;;;;;4992897;28;20068;-79
2021/04/13 00:37:31;;;;;;;11.38;3.60;;;410.40;1484.80;;;;;;5041523;28;20029;-79
2021/04/13 00:40:16;;;;;;;10.30;3.63;;;410.50;1484.80;;;;;;5071156;28;20036;-79
2021/04/13 00:42:42;;;;;;;8.63;3.53;;;410.50;1484.80;;;;;;5069649;28;20017;-75
2021/04/13 00:45:15;;;;;;;9.52;3.55;;;410.40;1484.80;;;;;;5069599;28;20036;-77
2021/04/13 00:47:43;;;;;;;9.45;3.80;;;410.30;1510.40;;;;;;5069892;28;20108;-77
2021/04/13 00:50:19;;;;;;;11.18;3.75;;;410.40;1510.40;;;;;;5070760;28;20021;-80
2021/04/13 00:52:52;;;;;;;7.40;3.30;;;410.30;1510.40;;;;;;5069775;28;20038;-78
2021/04/13 00:55:22;;;;;;;9.18;3.88;;;410.20;1510.40;;;;;;5071004;28;20024;-75
2021/04/13 00:58:09;;;;;;;9.50;4.28;;;410.30;1510.40;;;;;;5069647;28;20024;-76
2021/04/13 01:00:48;;;;;;;9.13;3.90;;;410.30;1536.00;;;;;;5069450;28;20480;-77
2021/04/13 01:03:15;;;;;;;10.52;3.58;;;410.20;1536.00;;;;;;5070759;28;20016;-78
2021/04/13 01:05:47;;;;;;;10.77;3.90;;;435.30;1561.60;;;;;;5069298;28;20158;-77
2021/04/13 01:08:23;;;;;;;11.93;3.95;;;410.10;1561.60;;;;;;5069285;28;20056;-78
2021/04/13 01:10:54;;;;;;;9.88;3.70;;;410.10;1587.20;;;;;;5070685;28;20020;-76
2021/04/13 01:13:29;;;;;;;8.23;4.23;;;410.00;1587.20;;;;;;5069161;28;20075;-78
2021/04/13 01:15:55;;;;;;;11.13;4.35;;;409.80;1612.80;;;;;;5070662;28;20490;-78
2021/04/13 01:18:31;;;;;;;8.80;4.00;;;409.80;1612.80;;;;;;5069390;28;20024;-80
2021/04/13 01:21:11;;;;;;;11.88;4.32;;;409.80;1612.80;;;;;;5070492;28;20135;-79
2021/04/13 01:26:43;;;;;;;8.85;4.60;;;409.70;1638.40;;;;;;5048429;28;20160;-80
2021/04/13 01:29:10;;;;;;;8.70;4.80;;;384.90;1638.40;;;;;;5031672;28;20171;-78
2021/04/13 01:31:48;;;;;;;16.85;9.93;;;384.90;1664.00;;;;;;5048287;28;20059;-75
2021/04/13 01:34:36;;;;;;;20.02;12.25;;;384.70;1689.60;;;;;;5031625;28;20025;-77
2021/04/13 01:37:12;;;;;;;19.80;13.77;;;384.60;1689.60;;;;;;5047995;28;20041;-78
2021/04/13 01:42:42;;;;;;;21.35;14.57;;;384.40;1689.60;;;;;;4988929;28;20105;-78
2021/04/13 01:45:12;;;;;;;22.10;12.90;;;384.10;1689.60;;;;;;4989095;28;20610;-77
2021/04/13 01:47:39;;;;;;;19.00;12.52;;;359.30;1689.60;;;;;;4988980;28;20477;-75
2021/04/13 01:50:12;;;;;;;15.07;12.48;;;359.10;1664.00;;;;;;4988921;28;20144;-76
2021/04/13 01:52:41;;;;;;;19.45;12.85;;;359.10;1664.00;;;;;;4988932;28;20022;-77
2021/04/13 01:55:25;;;;;;;20.48;11.98;;;358.90;1689.60;;;;;;4988942;28;20042;-77
2021/04/13 01:58:08;;;;;;;21.73;11.93;;;358.80;1689.60;;;;;;4990493;28;20113;-75
2021/04/13 02:01:09;;;;;;;17.95;11.38;;;358.80;1689.60;;;;;;4992755;28;20038;-75
2021/04/13 02:04:07;;;;;;;14.60;10.93;;;358.60;1689.60;;;;;;5010463;28;20427;-74
2021/04/13 02:06:51;;;;;;;13.98;9.80;;;358.50;1664.00;;;;;;5009035;28;20041;-76
2021/04/13 02:09:27;;;;;;;12.55;10.23;;;333.70;1689.60;;;;;;5011973;28;20087;-79
2021/04/13 02:12:03;;;;;;;15.15;10.40;;;333.60;1689.60;;;;;;5012054;28;20060;-78
2021/04/13 02:14:34;;;;;;;14.90;10.32;;;333.70;1664.00;;;;;;5011909;28;20026;-79
2021/04/13 02:17:02;;;;;;;;;;;333.50;1689.60;;;;;;5044549;28;20074;-78
2021/04/13 02:19:29;;;;;;;14.95;9.23;;;333.50;1689.60;;;;;;5072296;28;19916;-79
2021/04/13 02:22:09;;;;;;;14.50;9.70;;;333.50;1689.60;;;;;;5072285;28;20482;-77
2021/04/13 02:24:37;;;;;;;11.18;9.98;;;358.80;1689.60;;;;;;5073742;28;20470;-77
2021/04/13 02:27:16;;;;;;;11.73;9.25;;;333.30;1715.20;;;;;;5071951;28;20040;-74
2021/04/13 02:29:46;;;;;;;17.00;8.65;;;333.40;1689.60;;;;;;5071967;28;20024;-75
2021/04/13 02:32:33;;;;;;;11.13;8.60;;;333.30;1664.00;;;;;;5073190;28;20032;-80
2021/04/13 02:35:05;;;;;;;13.10;8.10;;;333.20;1638.40;;;;;;5073322;28;20021;-76
2021/04/13 02:37:41;;;;;;;12.48;8.00;;;333.20;1638.40;;;;;;5071721;28;20432;-78
2021/04/13 02:40:12;;;;;;;13.35;8.43;;;333.00;1638.40;;;;;;5073192;28;20364;-77
2021/04/13 02:42:47;;;;;;;10.23;7.27;;;332.90;1664.00;;;;;;5071959;28;20112;-77
2021/04/13 02:45:26;;;;;;;13.32;8.23;;;332.80;1664.00;;;;;;5071993;28;20277;-78
2021/04/13 02:48:01;;;;;;;11.75;7.95;;;332.80;1664.00;;;;;;5073139;28;20044;-75
2021/04/13 02:50:27;;;;;;;11.70;7.72;;;332.80;1638.40;;;;;;5071850;28;20029;-75
2021/04/13 02:52:54;;;;;;;10.43;7.22;;;308.10;1612.80;;;;;;5073033;28;20021;-76
2021/04/13 02:55:27;;;;;;;9.68;7.70;;;308.00;1612.80;;;;;;5071586;28;20025;-78
2021/04/13 02:57:55;;;;;;;8.20;7.40;;;307.90;1612.80;;;;;;5071630;28;20025;-74
2021/04/13 03:00:38;;;;;;;8.50;7.40;;;308.00;1587.20;;;;;;5071302;28;20555;-75
2021/04/13 03:03:07;;;;;;;9.38;7.45;;;307.80;1612.80;;;;;;5071502;28;20031;-75
2021/04/13 03:05:35;;;;;;;9.48;7.30;;;307.70;1612.80;;;;;;5071407;28;20078;-77
2021/04/13 03:08:14;;;;;;;7.82;6.85;;;307.50;1638.40;;;;;;5072281;28;20016;-77
2021/04/13 03:10:43;;;;;;;9.65;6.32;;;307.40;1638.40;;;;;;5071260;28;20031;-75
2021/04/13 03:13:15;;;;;;;8.15;6.57;;;307.40;1612.80;;;;;;5071085;28;20031;-77
2021/04/13 03:15:48;;;;;;;9.70;6.32;;;307.70;1612.80;;;;;;5072368;28;20024;-77
2021/04/13 03:18:17;;;;;;;10.82;6.47;;;307.50;1587.20;;;;;;5072636;28;20023;-76
2021/04/13 03:20:46;;;;;;;9.07;6.70;;;307.30;1612.80;;;;;;5072028;28;20093;-76
2021/04/13 03:23:13;;;;;;;8.82;7.38;;;307.20;1638.40;;;;;;5071015;28;20031;-76
2021/04/13 03:25:49;;;;;;;13.05;8.57;;;307.70;1638.40;;;;;;5072222;28;20025;-76
2021/04/13 03:28:19;;;;;;;9.52;7.72;;;282.40;1612.80;;;;;;5071058;28;20478;-76
2021/04/13 03:30:45;;;;;;;9.38;6.53;;;307.20;1638.40;;;;;;5071066;28;20020;-76
2021/04/13 03:33:22;;;;;;;10.25;6.63;;;282.40;1612.80;;;;;;5071015;28;20070;-75
2021/04/13 03:35:48;;;;;;;8.30;6.72;;;282.50;1612.80;;;;;;5070988;28;20502;-78
2021/04/13 03:38:20;;;;;;;9.70;6.30;;;282.50;1587.20;;;;;;5070887;28;20371;-76
2021/04/13 03:40:51;;;;;;;11.60;6.72;;;307.20;1612.80;;;;;;5070782;28;20142;-79
2021/04/13 03:43:23;;;;;;;11.85;6.43;;;282.50;1587.20;;;;;;5070824;28;20032;-75
2021/04/13 03:45:55;;;;;;;10.40;6.38;;;282.50;1587.20;;;;;;5070633;28;20032;-82
2021/04/13 03:48:27;;;;;;;7.18;6.15;;;282.30;1587.20;;;;;;5072024;28;20016;-76
2021/04/13 03:51:08;;;;;;;8.15;6.05;;;282.30;1587.20;;;;;;5070651;28;20028;-75
2021/04/13 03:53:40;;;;;;;8.73;7.18;;;282.20;1612.80;;;;;;5070695;28;20546;-79
2021/04/13 03:56:17;;;;;;;9.45;7.43;;;282.00;1612.80;;;;;;5071908;28;20032;-80
2021/04/13 03:59:15;;;;;;;9.48;6.75;;;282.00;1612.80;;;;;;5070418;28;20125;-76
2021/04/13 04:01:42;;;;;;;8.23;6.57;;;282.10;1587.20;;;;;;5071480;28;20083;-79
2021/04/13 04:04:20;;;;;;;7.78;6.68;;;282.00;1612.80;;;;;;5070449;28;20074;-76
2021/04/13 04:06:58;;;;;;;9.75;7.40;;;281.90;1612.80;;;;;;5070452;28;20021;-77
2021/04/13 04:09:27;;;;;;;8.10;6.70;;;282.00;1612.80;;;;;;5070366;28;20048;-77
2021/04/13 04:11:53;;;;;;;12.68;6.93;;;281.80;1612.80;;;;;;5070035;28;20035;-75
2021/04/13 04:14:22;;;;;;;7.35;6.50;;;282.10;1612.80;;;;;;5069818;28;20028;-77
2021/04/13 04:16:48;;;;;;;10.20;6.60;;;281.90;1587.20;;;;;;5070085;28;20033;-76
2021/04/13 04:19:21;;;;;;;14.38;7.20;;;282.00;1587.20;;;;;;5069658;28;20048;-75
2021/04/13 04:22:01;;;;;;;11.48;7.43;;;281.90;1612.80;;;;;;5069744;28;20039;-75
2021/04/13 04:24:36;;;;;;;7.15;6.38;;;282.00;1587.20;;;;;;5070180;28;20028;-75
2021/04/13 04:27:04;;;;;;;9.90;6.40;;;282.00;1587.20;;;;;;5069839;28;20024;-76
2021/04/13 04:29:29;;;;;;;10.65;7.10;;;282.00;1587.20;;;;;;5069645;28;20017;-77
2021/04/13 04:32:09;;;;;;;8.77;7.30;;;281.80;1587.20;;;;;;5069785;28;20374;-78
2021/04/13 04:34:34;;;;;;;9.15;7.85;;;281.60;1612.80;;;;;;5069771;28;20028;-74
2021/04/13 04:37:00;;;;;;;11.35;6.93;;;281.80;1587.20;;;;;;5070671;28;20048;-78
2021/04/13 04:39:36;;;;;;;9.70;7.32;;;281.60;1587.20;;;;;;5070854;28;20124;-82
2021/04/13 04:42:10;;;;;;;11.98;7.22;;;281.60;1587.20;;;;;;5070768;28;20017;-80
2021/04/13 04:44:35;;;;;;;9.30;7.35;;;281.60;1587.20;;;;;;5069659;28;20070;-77
2021/04/13 04:47:01;;;;;;;9.10;6.90;;;256.90;1587.20;;;;;;5070887;28;20024;-76
2021/04/13 04:49:40;;;;;;;9.55;7.13;;;256.60;1612.80;;;;;;5069829;28;20119;-77
2021/04/13 04:52:07;;;;;;;9.20;6.85;;;256.50;1612.80;;;;;;5069770;28;20021;-78
2021/04/13 04:54:33;;;;;;;7.47;6.70;;;256.70;1587.20;;;;;;5069530;28;20477;-75
2021/04/13 04:56:58;;;;;;;12.15;7.63;;;256.50;1612.80;;;;;;5070965;28;20091;-76
2021/04/13 04:59:24;;;;;;;9.88;7.60;;;256.50;1612.80;;;;;;5070649;28;20115;-76
2021/04/13 05:01:51;;;;;;;18.67;9.60;;;256.40;1612.80;;;;;;5069314;28;20025;-76
2021/04/13 05:04:17;;;;;;;13.50;9.23;;;256.40;1612.80;;;;;;5069092;28;20051;-75
2021/04/13 05:06:42;;;;;;;19.52;12.32;;;256.60;1587.20;;;;;;5070172;28;20356;-76
2021/04/13 05:09:08;;;;;;;21.73;13.93;;;256.20;1638.40;;;;;;5070668;28;20048;-77
2021/04/13 05:11:34;;;;;;;29.52;16.20;;;256.40;1612.80;;;;;;5070536;28;20416;-75
2021/04/13 05:14:00;;;;;;;43.25;22.95;;;256.50;1587.20;;;;;;5069046;28;20029;-76
2021/04/13 05:16:25;;;;;;;41.90;20.40;;;256.40;1612.80;;;;;;5069405;28;20031;-75
2021/04/13 05:18:51;;;;;;;39.42;20.00;;;256.30;1612.80;;;;;;5070372;28;20066;-81
2021/04/13 05:21:18;;;;;;;28.77;15.10;;;256.50;1612.80;;;;;;5069135;28;20080;-77
2021/04/13 05:23:44;;;;;;;10.07;8.02;;;256.70;1587.20;;;;;;5069019;28;20053;-75
2021/04/13 05:26:10;;;;;;;9.50;6.88;;;256.70;1587.20;;;;;;5068995;28;20398;-79
2021/04/13 05:28:36;;;;;;;10.70;7.95;;;256.60;1612.80;;;;;;5069373;28;20375;-77
2021/04/13 05:31:03;;;;;;;15.57;10.27;;;256.70;1612.80;;;;;;5069688;28;20029;-75
2021/04/13 05:33:29;;;;;;;39.42;17.02;;;256.50;1612.80;;;;;;5073607;28;20056;-76
2021/04/13 05:35:55;;;;;;;35.95;16.10;;;256.70;1587.20;;;;;;5073209;28;20055;-77
2021/04/13 05:38:26;;;;;;;18.48;12.10;;;256.60;1612.80;;;;;;5072524;28;20111;-75
2021/04/13 05:40:53;;;;;;;17.58;9.57;;;256.70;1587.20;;;;;;5074079;28;20064;-77
2021/04/13 05:43:19;;;;;;;19.98;11.85;;;256.90;1587.20;;;;;;5072940;28;20025;-77
2021/04/13 05:45:49;;;;;;;18.00;11.57;;;256.90;1587.20;;;;;;5073126;28;20074;-76
2021/04/13 05:48:17;;;;;;;17.13;10.45;;;256.80;1587.20;;;;;;5073148;28;20089;-79
2021/04/13 05:50:44;;;;;;;20.05;10.65;;;256.70;1587.20;;;;;;5072581;28;20382;-75
2021/04/13 05:53:12;;;;;;;17.92;9.73;;;256.70;1587.20;;;;;;5074110;28;20048;-75
2021/04/13 05:55:38;;;;;;;12.45;7.90;;;256.70;1587.20;;;;;;5074158;28;20019;-75
2021/04/13 05:58:07;;;;;;;14.05;8.27;;;256.70;1587.20;;;;;;5073855;28;20111;-73
2021/04/13 06:00:33;;;;;;;14.30;10.20;;;256.80;1612.80;;;;;;5072362;28;20131;-74
2021/04/13 06:03:01;;;;;;;11.50;8.60;;;281.60;1612.80;;;;;;5073814;28;20116;-75
2021/04/13 06:05:29;;;;;;;14.45;9.32;;;281.70;1612.80;;;;;;5074098;28;20031;-75
2021/04/13 06:07:56;;;;;;;22.15;8.95;;;281.60;1612.80;;;;;;5073680;28;20016;-75
2021/04/13 06:10:22;;;;;;;21.83;10.32;;;256.90;1561.60;;;;;;5073434;28;20016;-75
2021/04/13 06:13:00;;;;;;;11.80;7.50;;;256.90;1587.20;;;;;;5072134;28;20478;-75
2021/04/13 06:15:29;;;;;;;13.77;10.20;;;256.90;1561.60;;;;;;5074018;28;20031;-76
2021/04/13 06:17:56;;;;;;;8.95;7.82;;;256.10;1561.60;;;;;;5073710;28;20170;-75
2021/04/13 06:20:23;;;;;;;12.60;6.80;;;256.90;1561.60;;;;;;5071894;28;20513;-76
2021/04/13 06:22:50;;;;;;;9.35;7.28;;;281.60;1587.20;;;;;;5073494;28;20560;-75
2021/04/13 06:25:19;;;;;;;12.32;7.60;;;256.90;1561.60;;;;;;5073518;28;20056;-76
2021/04/13 06:27:45;;;;;;;14.65;9.27;;;281.60;1561.60;;;;;;5073498;28;20474;-75
2021/04/13 06:30:11;;;;;;;11.23;8.13;;;281.70;1561.60;;;;;;5073182;28;20028;-76
2021/04/13 06:32:37;;;;;;;11.02;9.38;;;256.90;1536.00;;;;;;5073394;28;20029;-75
2021/04/13 06:35:04;;;;;;;15.23;8.70;;;281.60;1587.20;;;;;;5073158;28;20028;-74
2021/04/13 06:37:30;;;;;;;12.35;8.23;;;281.60;1587.20;;;;;;5073250;28;20119;-74
2021/04/13 06:39:56;;;;;;;15.50;10.02;;;281.70;1587.20;;;;;;5073072;28;20107;-75
2021/04/13 06:42:37;;;;;;;12.48;8.63;;;256.80;1561.60;;;;;;5072714;28;20407;-75
2021/04/13 06:45:07;;;;;;;12.07;9.30;;;256.80;1561.60;;;;;;5072801;28;20521;-77
2021/04/13 06:48:02;;;;;;;12.20;9.98;;;256.90;1587.20;;;;;;5073070;28;20107;-77
2021/04/13 06:50:47;;;;;;;14.93;10.40;;;256.90;1561.60;;;;;;5073457;28;20060;-76
2021/04/13 06:53:34;;;;;;;15.85;10.02;;;256.90;1561.60;;;;;;5072655;28;20027;-76
2021/04/13 06:56:12;;;;;;;12.45;10.02;;;256.80;1587.20;;;;;;5072826;28;20431;-76
2021/04/13 06:58:46;;;;;;;27.13;14.27;;;256.90;1587.20;;;;;;5073016;28;20031;-77
2021/04/13 07:01:33;;;;;;;25.77;12.10;;;281.60;1612.80;;;;;;5072576;28;20040;-76
2021/04/13 07:04:12;;;;;;;21.42;11.55;;;281.80;1612.80;;;;;;5072880;28;20028;-75
2021/04/13 07:06:58;;;;;;;14.05;9.90;;;281.70;1587.20;;;;;;5072856;28;20023;-76
2021/04/13 07:09:38;;;;;;;14.70;9.60;;;281.60;1587.20;;;;;;5072715;28;20016;-76
2021/04/13 07:12:12;;;;;;;13.23;9.77;;;281.60;1612.80;;;;;;5069535;28;20488;-75
2021/04/13 07:14:50;;;;;;;14.90;9.77;;;281.70;1587.20;;;;;;5072592;28;20033;-76
2021/04/13 07:17:17;;;;;;;14.27;9.45;;;281.70;1587.20;;;;;;5082874;28;20485;-76
2021/04/13 07:19:54;;;;;;;13.93;8.70;;;281.60;1612.80;;;;;;5081313;28;20045;-78
2021/04/13 07:22:23;;;;;;;14.60;9.57;;;281.70;1612.80;;;;;;5080792;28;20099;-74
2021/04/13 07:24:54;;;;;;;16.10;10.80;;;281.70;1587.20;;;;;;5081152;28;20106;-75
2021/04/13 07:27:22;;;;;;;13.57;9.52;;;281.90;1612.80;;;;;;5082218;28;20410;-75
2021/04/13 07:30:05;;;;;;;11.65;9.65;;;281.80;1587.20;;;;;;5081210;28;20031;-75
2021/04/13 07:32:34;;;;;;;15.25;11.05;;;282.00;1587.20;;;;;;5082511;28;20017;-74
2021/04/13 07:35:00;;;;;;;17.75;12.30;;;282.00;1561.60;;;;;;5080081;28;20029;-73
2021/04/13 07:37:41;;;;;;;23.70;14.77;;;281.90;1587.20;;;;;;5081338;28;20031;-77
2021/04/13 07:40:19;;;;;;;17.90;11.50;;;281.90;1612.80;;;;;;5081695;28;20104;-76
2021/04/13 07:43:12;;;;;;;16.92;11.80;;;282.00;1587.20;;;;;;5080911;28;20486;-76
2021/04/13 07:45:50;;;;;;;12.15;9.80;;;282.00;1587.20;;;;;;5080630;28;20478;-75
2021/04/13 07:48:53;;;;;;;13.70;9.27;;;282.00;1587.20;;;;;;5079978;28;20107;-75
2021/04/13 07:51:39;;;;;;;16.48;9.80;;;282.00;1587.20;;;;;;5079743;28;20027;-74
2021/04/13 07:54:22;;;;;;;15.52;9.43;;;282.00;1587.20;;;;;;5080804;28;20497;-74
2021/04/13 07:56:54;;;;;;;14.35;9.55;;;282.00;1587.20;;;;;;5081165;28;20066;-74
2021/04/13 07:59:39;;;;;;;15.40;9.07;;;282.10;1587.20;;;;;;5079667;28;20032;-76
2021/04/13 08:02:05;;;;;;;11.27;8.50;;;282.00;1587.20;;;;;;5080637;28;20032;-75
2021/04/13 08:04:31;;;;;;;16.42;9.38;;;282.10;1587.20;;;;;;5080013;28;20012;-76
2021/04/13 08:07:04;;;;;;;14.25;8.90;;;282.10;1587.20;;;;;;5082131;28;20070;-77
2021/04/13 08:09:54;;;;;;;15.80;8.82;;;282.00;1587.20;;;;;;5079770;28;20401;-74
2021/04/13 08:12:29;;;;;;;13.95;8.90;;;282.00;1587.20;;;;;;5079141;28;20016;-78
2021/04/13 08:14:54;;;;;;;17.17;11.18;;;281.80;1612.80;;;;;;5079519;28;20473;-74
2021/04/13 08:17:42;;;;;;;18.85;11.25;;;281.80;1612.80;;;;;;5107428;27;20438;-75
2021/04/13 08:20:11;;;;;;;14.45;8.75;;;281.80;1612.80;;;;;;5106067;28;20016;-76
2021/04/13 08:22:57;;;;;;;16.98;10.15;;;281.80;1612.80;;;;;;5107663;28;20019;-76
2021/04/13 08:25:36;;;;;;;11.00;8.40;;;281.90;1612.80;;;;;;5104921;28;20081;-76
2021/04/13 08:28:37;;;;;;;14.80;8.75;;;281.90;1587.20;;;;;;5104933;28;20027;-76
2021/04/13 08:34:23;;;;;;;11.82;7.68;;;282.00;1612.80;;;;;;5106358;28;20111;-76
2021/04/13 08:37:18;;;;;;;14.85;9.52;;;281.90;1587.20;;;;;;5113252;28;20024;-77
2021/04/13 08:40:12;;;;;;;15.07;9.85;;;281.90;1587.20;;;;;;5091096;28;20036;-76
2021/04/13 08:42:53;;;;;;;16.40;9.40;;;281.90;1587.20;;;;;;5106615;28;20016;-75
2021/04/13 08:45:49;;;;;;;11.70;7.68;;;281.80;1612.80;;;;;;5105582;28;20111;-76
2021/04/13 08:48:25;;;;;;;16.77;11.13;;;281.80;1587.20;;;;;;5044261;28;20033;-75
2021/04/13 08:51:16;;;;;;;21.63;11.95;;;281.80;1587.20;;;;;;5044191;28;20021;-75
2021/04/13 08:53:50;;;;;;;17.17;10.20;;;282.00;1587.20;;;;;;5025180;28;20021;-75
2021/04/13 08:56:28;;;;;;;22.02;13.75;;;282.00;1587.20;;;;;;5044440;28;20053;-76
2021/04/13 08:58:55;;;;;;;22.77;15.13;;;282.20;1587.20;;;;;;5043925;28;20034;-76
2021/04/13 09:01:43;;;;;;;20.35;11.73;;;282.20;1561.60;;;;;;5041560;28;20087;-76
2021/04/13 09:04:30;;;;;;;26.23;13.90;;;282.10;1561.60;;;;;;5044039;28;20017;-75
2021/04/13 09:07:02;;;;;;;27.33;16.42;;;282.20;1561.60;;;;;;5026981;28;20447;-77
2021/04/13 09:09:40;;;;;;;49.42;28.00;;;282.20;1561.60;;;;;;5044016;28;20438;-76
2021/04/13 09:12:23;;;;;;;34.70;24.73;;;282.30;1561.60;;;;;;5024912;28;20519;-75
2021/04/13 09:14:54;;;;;;;23.55;14.88;;;282.30;1561.60;;;;;;5042168;28;20033;-75
2021/04/13 09:17:20;;;;;;;41.72;26.92;;;282.30;1561.60;;;;;;5043895;28;20075;-76
2021/04/13 09:20:09;;;;;;;20.13;13.98;;;282.30;1561.60;;;;;;5044630;28;20480;-75
2021/04/13 09:23:06;;;;;;;27.02;17.70;;;282.30;1561.60;;;;;;5027698;28;20048;-75
2021/04/13 09:25:50;;;;;;;22.67;15.23;;;282.30;1561.60;;;;;;5094985;28;20042;-76
2021/04/13 09:28:19;;;;;;;24.48;15.73;;;282.20;1561.60;;;;;;5095204;28;20056;-75
2021/04/13 09:30:48;;;;;;;44.28;26.15;;;282.10;1561.60;;;;;;5092121;28;20032;-76
2021/04/13 09:33:36;;;;;;;23.33;15.25;;;282.00;1561.60;;;;;;5092862;28;20044;-76
2021/04/13 09:36:23;;;;;;;11.85;9.85;;;282.40;1561.60;;;;;;5092773;28;20035;-75
2021/04/13 09:39:10;;;;;;;25.92;16.77;;;282.10;1561.60;;;;;;5091716;28;20070;-75
2021/04/13 09:41:36;;;;;;;17.73;10.75;;;282.20;1587.20;;;;;;5093014;28;20107;-75
2021/04/13 09:44:23;;;;;;;61.35;20.83;;;282.00;1612.80;;;;;;5093016;28;20492;-75
2021/04/13 09:46:55;;;;;;;23.60;15.02;;;282.00;1612.80;;;;;;5091577;28;20961;-75
2021/04/13 09:50:11;;;;;;;21.85;11.55;;;282.10;1612.80;;;;;;5092593;28;20499;-76
2021/04/13 09:53:05;;;;;;;16.42;10.88;;;282.20;1638.40;;;;;;5010498;28;20607;-76
2021/04/13 09:55:50;;;;;;;15.05;11.43;;;282.20;1638.40;;;;;;4992746;28;20037;-75
2021/04/13 09:58:43;;;;;;;22.05;12.80;;;282.20;1638.40;;;;;;5011161;28;20045;-76
2021/04/13 10:01:37;;;;;;;18.40;11.25;;;282.30;1638.40;;;;;;4994095;28;20061;-75
2021/04/13 10:04:18;;;;;;;18.88;11.70;;;282.30;1638.40;;;;;;4993710;28;20026;-77
2021/04/13 10:07:05;;;;;;;20.27;14.07;;;282.30;1638.40;;;;;;4993868;28;20022;-76
2021/04/13 10:09:42;;;;;;;27.30;15.48;;;282.30;1638.40;;;;;;4994118;28;20440;-76
2021/04/13 10:12:35;;;;;;;23.92;15.40;;;282.30;1638.40;;;;;;4994246;28;20543;-76
2021/04/13 10:15:15;;;;;;;20.80;12.55;;;282.30;1664.00;;;;;;5010234;28;20049;-76
2021/04/13 10:18:03;;;;;;;33.22;22.33;;;282.30;1689.60;;;;;;4993655;28;20049;-77
2021/04/13 10:20:34;;;;;;;29.30;18.88;;;282.30;1664.00;;;;;;5010554;28;20033;-76
2021/04/13 10:23:26;;;;;;;43.22;25.98;;;282.20;1689.60;;;;;;5010292;28;20087;-76
2021/04/13 10:26:30;;;;;;;22.92;14.90;;;282.30;1715.20;;;;;;5010259;28;20206;-76
2021/04/13 10:29:17;;;;;;;22.05;15.60;;;282.30;1715.20;;;;;;5069675;28;20420;-76
2021/04/13 10:31:52;;;;;;;20.38;12.70;;;282.30;1715.20;;;;;;5092245;28;20024;-75
2021/04/13 10:34:43;;;;;;;16.40;11.32;;;282.30;1740.80;;;;;;5091011;28;20028;-76
2021/04/13 10:37:28;;;;;;;13.75;10.45;;;282.30;1740.80;;;;;;5090984;28;20028;-75
2021/04/13 10:40:31;;;;;;;11.65;10.20;;;282.30;1740.80;;;;;;5090998;28;20023;-75
2021/04/13 10:43:38;;;;;;;11.25;10.05;;;282.40;1740.80;;;;;;5090837;28;20020;-75
2021/04/13 10:46:19;;;;;;;14.23;10.00;;;282.40;1740.80;;;;;;5091800;28;20032;-75
2021/04/13 10:48:48;;;;;;;15.27;10.75;;;282.40;1766.40;;;;;;5090642;28;20385;-74
2021/04/13 10:51:32;;;;;;;15.95;11.40;;;282.40;1740.80;;;;;;5090425;28;20040;-76
2021/04/13 10:54:17;;;;;;;14.50;11.50;;;282.30;1766.40;;;;;;5091990;28;20027;-76
2021/04/13 10:56:42;;;;;;;18.27;13.10;;;282.30;1792.00;;;;;;5091546;28;20032;-76
2021/04/13 10:59:54;;;;;;;17.48;13.95;;;282.20;1817.60;;;;;;5091943;28;20026;-75
2021/04/13 11:02:57;;;;;;;19.10;12.77;;;282.20;1843.20;;;;;;5090310;28;20032;-75
2021/04/13 11:05:44;;;;;;;14.30;12.00;;;282.30;1843.20;;;;;;5091534;28;20081;-74
2021/04/13 11:08:48;;;;;;;21.02;13.30;;;282.30;1868.80;;;;;;5091282;28;20032;-76
2021/04/13 11:11:36;;;;;;;16.35;11.98;;;282.30;1843.20;;;;;;5091224;28;20021;-76
2021/04/13 11:14:13;;;;;;;15.65;12.18;;;282.10;1868.80;;;;;;5090018;28;20020;-85
2021/04/13 11:17:09;;;;;;;15.77;12.07;;;282.00;1843.20;;;;;;5089900;28;20147;-77
2021/04/13 11:20:16;;;;;;;15.98;12.98;;;282.10;1843.20;;;;;;5090019;28;20024;-76
2021/04/13 11:22:59;;;;;;;22.75;15.60;;;282.20;1868.80;;;;;;5089759;28;20416;-74
2021/04/13 11:25:49;;;;;;;26.02;17.58;;;282.00;1868.80;;;;;;5090107;28;20020;-76
2021/04/13 11:28:15;;;;;;;22.55;16.48;;;282.00;1894.40;;;;;;5089948;28;20057;-76
2021/04/13 11:30:56;;;;;;;19.13;15.40;;;281.90;1868.80;;;;;;5091236;28;20028;-76
2021/04/13 11:33:33;;;;;;;25.13;16.75;;;281.90;1868.80;;;;;;5089440;28;20214;-76
2021/04/13 11:36:17;;;;;;;20.38;15.73;;;281.80;1894.40;;;;;;5089345;28;20043;-76
2021/04/13 11:38:49;;;;;;;19.88;15.73;;;281.80;1894.40;;;;;;5090644;28;20488;-76
2021/04/13 11:41:30;;;;;;;22.10;16.05;;;281.80;1894.40;;;;;;5084680;28;20024;-78
2021/04/13 11:44:39;;;;;;;21.80;14.73;;;281.70;1920.00;;;;;;5089410;28;20032;-77
2021/04/13 11:47:21;;;;;;;22.52;16.17;;;281.80;1920.00;;;;;;5027662;28;20033;-77
2021/04/13 11:50:04;;;;;;;25.20;16.90;;;281.70;1920.00;;;;;;5083333;28;20115;-74
2021/04/13 11:52:35;;;;;;;30.98;21.58;;;281.70;1920.00;;;;;;5086879;28;20024;-74
2021/04/13 11:55:01;;;;;;;32.63;22.40;;;281.70;1920.00;;;;;;5085753;28;20020;-73
2021/04/13 11:57:51;;;;;;;27.08;19.95;;;281.70;1920.00;;;;;;5088338;28;20513;-73
2021/04/13 12:00:20;;;;;;;28.98;20.45;;;256.90;1920.00;;;;;;5089496;28;20024;-76
2021/04/13 12:02:47;;;;;;;28.90;19.67;;;256.90;1920.00;;;;;;5089547;28;20035;-73
2021/04/13 12:05:27;;;;;;;42.28;29.67;;;281.60;1945.60;;;;;;5089716;28;20040;-75
2021/04/13 12:07:52;;;;;;;28.67;21.27;;;281.70;1971.20;;;;;;5086889;28;20098;-72
2021/04/13 12:10:30;;;;;;;25.15;19.33;;;281.80;1945.60;;;;;;5088088;28;20020;-75
2021/04/13 12:13:02;;;;;;;30.67;22.05;;;281.80;1945.60;;;;;;5061909;28;20126;-75
2021/04/13 12:15:31;;;;;;;30.42;21.30;;;281.70;1920.00;;;;;;5058337;28;20108;-74
2021/04/13 12:18:20;;;;;;;38.75;24.15;;;281.70;1945.60;;;;;;5058533;28;20605;-74
2021/04/13 12:20:46;;;;;;;28.05;22.98;;;281.70;1971.20;;;;;;5091416;28;20032;-73
2021/04/13 12:23:11;;;;;;;27.65;21.30;;;281.80;1945.60;;;;;;5058960;28;20017;-71
2021/04/13 12:26:02;;;;;;;24.13;19.77;;;281.80;1945.60;;;;;;5066279;28;20102;-74
2021/04/13 12:28:33;;;;;;;27.73;20.50;;;281.70;1945.60;;;;;;5050336;28;20021;-73
2021/04/13 12:31:05;;;;;;;28.70;20.67;;;281.70;1971.20;;;;;;5067037;28;20151;-73
2021/04/13 12:33:30;;;;;;;25.67;18.83;;;281.70;1971.20;;;;;;5066538;28;20016;-73
2021/04/13 12:36:02;;;;;;;28.27;20.88;;;281.70;1971.20;;;;;;5066872;28;20177;-72
2021/04/13 12:38:43;;;;;;;;;;;281.70;1996.80;;;;;;5050472;28;20078;-74
2021/04/13 12:41:21;;;;;;;27.52;19.35;;;281.70;1996.80;;;;;;5064686;28;19908;-75
2021/04/13 12:43:55;;;;;;;24.75;18.27;;;256.90;1971.20;;;;;;5065090;28;20033;-74
2021/04/13 12:46:30;;;;;;;17.17;15.38;;;281.60;1996.80;;;;;;5066619;28;20028;-74
2021/04/13 12:48:57;;;;;;;20.63;16.40;;;256.90;1945.60;;;;;;5066774;28;20035;-75
2021/04/13 12:51:32;;;;;;;21.70;14.82;;;281.60;1996.80;;;;;;5064779;28;20029;-74
2021/04/13 12:54:13;;;;;;;19.05;15.60;;;281.70;1996.80;;;;;;5067220;28;20021;-74
2021/04/13 12:56:40;;;;;;;19.45;14.50;;;281.70;1996.80;;;;;;5062937;28;20602;-73
2021/04/13 12:59:10;;;;;;;22.38;15.02;;;281.60;1996.80;;;;;;5059872;28;20052;-73